Watson, Minnesota
Current Conditions -  °F | °C
As of 12:55 AM on Thursday 25 Dec 2014 (Local Time) from KMVE Reporting Station
Scattered Clouds Scattered Clouds  
Wind Chill: 20°   Ceiling: Unl
Heat Index: 28°   Visibility: 10mi
Dew Point: 28°   Wind: 8mph
Humidity: 100%   Direction: 220°SW
Pressure: 29.55"   Gusts: NA
Location:  45.01°N, 95.8°W
Report Text: KMVE 250655Z AUTO 22007KT 10SM SCT060 M02/M02 A2955 RMK AO2
Loading
Personal Weather Stations






























Interactive Weather Map New forecast layout! Learn more

10-Day Weather Forecast

Advertisements
Track Severe Weather on mobile